Adamsville, Alabama
Current Conditions -  °F | °C
As of 3:53 PM on Tuesday 21 Oct 2014 (Local Time) from KBHM Reporting Station
Scattered Clouds Scattered Clouds  
Wind Chill: 76°   Ceiling: Unl
Heat Index: 76°   Visibility: 10mi
Dew Point: 53°   Wind: 12mph
Humidity: 45%   Direction: 330°NNW
Pressure: 30.01"   Gusts: NA
Location:  33.6°N, 86.96°W
Report Text: KBHM 212053Z 33010KT 10SM SCT048 24/12 A3001 RMK AO2 SLP158 T02440117 56012
Loading
Personal Weather Stations






























Interactive Weather Map New forecast layout! Learn more

10-Day Weather Forecast

Advertisements
Track Severe Weather on mobile